Historyczne dane pomiarowe

Dodano dane terminowe – wersja testowa.

Dane z okresu 1951-2019

Wersja bazy: 1.34 [2019-03-16, lista zmian], aktualizacja planowana na 2019-04-15

Dane meteo z obszaru Polski uzyskane na podstawie danych udostępnionych przez Instytut Meteorologii i Gospodarki Wodnej – Państwowy Instytut Badawczy.

 

Wybierz Datę:    

       

TemperaturaWilgotnośćWiatrCiśnienieOpadyŚniegCzas trwania zjawisk
 Stacja t tx tn tng RH VA  wxwx mslp ppp RRR   cm mm wxwxwxwxwxwxwx
2010-10-11 4.7 9.2 2.0--- 4.7----- 0.0------------
2010-10-12 3.9 12.2 -1.6--- 3.0----- 0.0------------
2010-10-13 4.2 10.9 0.8--- 4.7----- 0.0------------
2010-10-14 3.2 13.5 -3.7--- 2.3----- 0.7------------
2010-10-15 6.0 12.0 3.0--- 6.7----- 1.1------------
2010-10-16 3.4 11.6 -1.7--- 6.3----- 0.0------------
2010-10-17 4.5 7.2 2.9--- 8.0----- 0.0------------
2010-10-18 5.4 8.3 3.1--- 8.0----- 0.1------------
2010-10-19 8.1 11.1 6.3--- 8.0----- 5.2------------
2010-10-20 7.3 10.5 6.0--- 5.0----- 0.1------------
2010-10-21 5.9 10.3 3.8--- 5.7----- 0.4------------
2010-10-22 5.5 9.4 2.6--- 1.0----- 0.0------------
2010-10-23 6.9 14.6 2.8--- 1.0----- 0.0------------
2010-10-24 8.6 18.1 1.4--- 4.0----- 0.1------------
2010-10-25 7.9 11.8 5.8--- 8.0----- 5.4------------
2010-10-26 4.8 8.2 3.3--- 6.3----- 0.2------------
2010-10-27 2.1 6.7 -0.5--- 2.0----- 0.0------------
2010-10-28 1.9 11.3 -5.5--- 2.7----- 0.0------------
2010-10-29 6.1 13.8 3.0--- 1.3----- 0.0------------
2010-10-30 6.3 16.9 -0.2--- 1.7----- 0.0------------
2010-10-31 7.6 17.6 -0.7--- 1.3----- 0.0------------
2010-11-01 7.1 18.9 -0.4--- 1.0----- 0.0------------
2010-11-02 10.6 17.9 6.8--- 5.0----- 0.0------------
2010-11-03 7.9 15.7 2.2--- 7.3----- 0.7------------
2010-11-04 11.3 14.8 8.2--- 8.0----- 3.5------------
2010-11-05 15.1 19.8 11.8--- 8.0----- 1.2------------
2010-11-06 11.2 16.2 8.8--- 7.7----- 2.3------------
2010-11-07 7.7 12.1 5.3--- 5.3----- 0.3------------
2010-11-08 10.9 19.6 6.7--- 4.7----- 4.8------------
2010-11-09 11.9 18.4 7.4--- 5.3----- 4.8------------
121.1 ms

 

Źródłem pochodzenia danych jest Instytut Meteorologii i Gospodarki Wodnej – Państwowy Instytut Badawczy. Dane Instytutu Meteorologii i Gospodarki Wodnej – Państwowego Instytutu Badawczego zostały przetworzone.

Dane źródłowe można odnaleźć na stronie https://dane.imgw.pl